Seattle, Washington
Current Conditions -  °F | °C
As of 6:53 AM on Wednesday 26 Nov 2014 (Local Time) from KBFI Reporting Station
Broken Clouds Broken Clouds  
Wind Chill: 15°   Ceiling: 3600
Heat Index: 15°   Visibility: 10mi
Dew Point: 11°   Wind: 12mph
Humidity: 78%   Direction: 180°S
Pressure: 30.12"   Gusts: 18mph
Location:  47.6°N, 122.32°W
Report Text: KBFI 261453Z 18010G16KT 10SM FEW023 BKN036 15/11 A3012 RMK AO2 SLP200 T01500111 56007
Loading
Personal Weather Stations






























Interactive Weather Map New forecast layout! Learn more

10-Day Weather Forecast

Advertisements
Track Severe Weather on mobile